createdAt,value
2023-11-16T00:01:29.015Z,2.15
2023-11-16T00:04:30.447Z,1.92
2023-11-16T00:07:34.329Z,2.03
2023-11-16T00:10:35.845Z,2.15
2023-11-16T00:13:37.976Z,2.17
2023-11-16T00:16:39.302Z,2.50
2023-11-16T00:19:42.516Z,2.33
2023-11-16T00:22:44.163Z,2.55
2023-11-16T00:25:45.447Z,2.65
2023-11-16T00:28:47.436Z,2.40
2023-11-16T00:31:48.803Z,2.60
2023-11-16T00:34:50.132Z,3.10
2023-11-16T00:37:54.328Z,2.42
2023-11-16T00:40:56.444Z,2.28
2023-11-16T00:43:58.149Z,2.60
2023-11-16T00:46:59.477Z,2.60
2023-11-16T00:50:01.115Z,3.03
2023-11-16T00:53:02.401Z,2.75
2023-11-16T00:56:07.006Z,2.67
2023-11-16T00:59:08.438Z,2.63
2023-11-16T01:02:10.666Z,2.35
2023-11-16T01:05:12.111Z,2.70
2023-11-16T01:08:13.435Z,2.60
2023-11-16T01:11:17.154Z,2.38
2023-11-16T01:14:18.721Z,2.60
2023-11-16T01:17:22.686Z,2.17
2023-11-16T01:20:26.339Z,2.30
2023-11-16T01:23:28.681Z,2.38
2023-11-16T01:26:31.148Z,2.53
2023-11-16T01:29:32.566Z,2.88
2023-11-16T01:32:33.940Z,2.22
2023-11-16T01:35:38.057Z,2.45
2023-11-16T01:38:39.469Z,2.30
2023-11-16T01:41:40.739Z,2.40
2023-11-16T01:44:42.161Z,2.30
2023-11-16T01:47:43.581Z,2.47
2023-11-16T01:50:45.310Z,2.67
2023-11-16T01:53:51.162Z,2.47
2023-11-16T01:56:52.759Z,2.95
2023-11-16T01:59:54.059Z,2.78
2023-11-16T02:02:56.891Z,2.13
2023-11-16T02:05:59.628Z,1.95
2023-11-16T02:09:00.985Z,2.58
2023-11-16T02:12:02.665Z,2.50
2023-11-16T02:15:04.162Z,2.58
2023-11-16T02:18:05.549Z,2.72
2023-11-16T02:21:08.335Z,2.15
2023-11-16T02:24:12.944Z,1.98
2023-11-16T02:27:14.301Z,2.05
2023-11-16T02:30:15.826Z,2.30
2023-11-16T02:33:17.671Z,1.92
2023-11-16T02:36:19.071Z,2.33
2023-11-16T02:39:20.448Z,2.00
2023-11-16T02:42:21.833Z,2.00
2023-11-16T02:45:24.215Z,2.08
2023-11-16T02:48:25.829Z,1.88
2023-11-16T02:51:27.225Z,2.10
2023-11-16T02:54:28.712Z,2.10
2023-11-16T02:57:30.318Z,2.63
2023-11-16T03:00:33.348Z,2.45
2023-11-16T03:03:35.980Z,1.98
2023-11-16T03:06:38.785Z,2.17
2023-11-16T03:09:40.215Z,1.85
2023-11-16T03:12:41.598Z,2.00
2023-11-16T03:15:43.342Z,1.45
2023-11-16T03:18:44.768Z,1.25
2023-11-16T03:21:46.205Z,1.42
2023-11-16T03:24:47.693Z,1.23
2023-11-16T03:27:49.233Z,1.42
2023-11-16T03:30:50.749Z,1.42
2023-11-16T03:33:52.146Z,1.90
2023-11-16T03:36:53.471Z,1.60
2023-11-16T03:39:54.809Z,1.65
2023-11-16T03:42:56.123Z,1.42
2023-11-16T03:45:57.408Z,1.85
2023-11-16T03:48:58.756Z,1.73
2023-11-16T03:52:01.767Z,1.75
2023-11-16T03:55:03.583Z,2.13
2023-11-16T03:58:04.866Z,1.98
2023-11-16T04:01:06.292Z,1.80
2023-11-16T04:04:11.913Z,1.90
2023-11-16T04:07:13.431Z,2.70
2023-11-16T04:10:14.842Z,2.50
2023-11-16T04:13:18.470Z,2.60
2023-11-16T04:16:25.107Z,3.00
2023-11-16T04:19:26.840Z,2.40
2023-11-16T04:22:29.964Z,2.70
2023-11-16T04:25:34.512Z,2.58
2023-11-16T04:28:37.945Z,2.88
2023-11-16T04:31:39.574Z,2.75
2023-11-16T04:34:41.596Z,3.10
2023-11-16T04:37:43.686Z,2.40
2023-11-16T04:40:45.181Z,2.95
2023-11-16T04:43:46.647Z,2.58
2023-11-16T04:46:49.687Z,2.63
2023-11-16T04:49:51.025Z,2.67
2023-11-16T04:52:52.598Z,4.30
2023-11-16T04:55:54.340Z,5.95
2023-11-16T04:58:56.059Z,6.80
2023-11-16T05:01:57.383Z,4.38
2023-11-16T05:04:59.068Z,2.33
2023-11-16T05:08:00.388Z,2.35
2023-11-16T05:11:01.697Z,2.17
2023-11-16T05:14:04.080Z,2.97
2023-11-16T05:17:06.157Z,2.35
2023-11-16T05:20:07.758Z,3.95
2023-11-16T05:23:09.536Z,4.13
2023-11-16T05:26:11.883Z,2.42
2023-11-16T05:29:13.239Z,2.63
2023-11-16T05:32:14.516Z,2.40
2023-11-16T05:35:15.821Z,2.63
2023-11-16T05:38:18.818Z,3.05
2023-11-16T05:41:21.734Z,2.92
2023-11-16T05:44:23.597Z,2.55
2023-11-16T05:47:25.346Z,3.30
2023-11-16T05:50:26.702Z,2.95
2023-11-16T05:53:28.034Z,2.67
2023-11-16T05:56:29.348Z,2.92
2023-11-16T05:59:30.645Z,2.72
2023-11-16T06:02:31.969Z,2.47
2023-11-16T06:05:34.100Z,2.88
2023-11-16T06:08:38.046Z,2.95
2023-11-16T06:11:39.432Z,2.97
2023-11-16T06:14:46.568Z,2.95
2023-11-16T06:17:48.572Z,3.20
2023-11-16T06:20:49.888Z,5.05
2023-11-16T06:23:51.372Z,5.18
2023-11-16T06:26:52.692Z,11.35
2023-11-16T06:29:54.000Z,2.97
2023-11-16T06:32:55.861Z,5.13
2023-11-16T06:35:57.162Z,6.10
2023-11-16T06:38:59.147Z,4.38
2023-11-16T06:42:00.480Z,4.50
2023-11-16T06:45:02.178Z,4.30
2023-11-16T06:48:04.766Z,8.10
2023-11-16T06:51:09.323Z,7.28
2023-11-16T06:54:12.823Z,6.88
2023-11-16T06:57:16.999Z,9.18
2023-11-16T07:00:22.588Z,6.15
2023-11-16T07:03:24.133Z,8.32
2023-11-16T07:06:25.596Z,6.22
2023-11-16T07:09:28.423Z,3.72
2023-11-16T07:12:31.777Z,3.72
2023-11-16T07:15:33.735Z,3.90
2023-11-16T07:18:35.589Z,4.30
2023-11-16T07:21:38.521Z,3.67
2023-11-16T07:24:40.870Z,3.67
2023-11-16T07:27:42.292Z,3.65
2023-11-16T07:30:46.620Z,3.88
2023-11-16T07:33:55.402Z,6.07
2023-11-16T07:36:56.789Z,4.03
2023-11-16T07:39:58.105Z,3.78
2023-11-16T07:42:59.384Z,4.95
2023-11-16T07:46:00.693Z,4.40
2023-11-16T07:49:02.125Z,5.05
2023-11-16T07:52:03.878Z,5.53
2023-11-16T07:55:08.030Z,5.10
2023-11-16T07:58:13.499Z,7.70
2023-11-16T08:01:17.156Z,6.15
2023-11-16T08:04:19.996Z,8.73
2023-11-16T08:07:24.501Z,7.57
2023-11-16T08:10:27.891Z,7.47
2023-11-16T08:13:29.204Z,7.80
2023-11-16T08:16:32.034Z,4.10
2023-11-16T08:19:33.908Z,3.53
2023-11-16T08:22:35.507Z,3.72
2023-11-16T08:25:39.222Z,3.80
2023-11-16T08:28:43.089Z,3.67
2023-11-16T08:31:53.824Z,3.85
2023-11-16T08:34:55.244Z,3.05
2023-11-16T08:37:56.561Z,3.13
2023-11-16T08:41:01.150Z,3.30
2023-11-16T08:47:10.083Z,3.25
2023-11-16T08:50:13.700Z,3.30
2023-11-16T08:53:15.698Z,3.70
2023-11-16T08:56:23.825Z,3.97
2023-11-16T08:59:36.764Z,4.25
2023-11-16T09:02:38.337Z,4.50
2023-11-16T09:05:41.832Z,3.80
2023-11-16T09:11:47.506Z,4.13
2023-11-16T09:14:48.854Z,3.97
2023-11-16T09:17:52.030Z,4.22
2023-11-16T09:20:57.463Z,3.67
2023-11-16T09:23:59.603Z,3.42
2023-11-16T09:27:02.060Z,3.88
2023-11-16T09:30:05.755Z,3.90
2023-11-16T09:33:11.056Z,3.13
2023-11-16T09:36:15.058Z,3.42
2023-11-16T09:39:17.134Z,3.95
2023-11-16T09:42:19.856Z,3.15
2023-11-16T09:45:21.999Z,4.10
2023-11-16T09:48:23.760Z,3.85
2023-11-16T09:51:27.093Z,3.72
2023-11-16T09:54:30.102Z,4.38
2023-11-16T09:57:35.798Z,4.15
2023-11-16T10:00:37.409Z,3.30
2023-11-16T10:03:42.273Z,3.70
2023-11-16T10:06:49.611Z,3.25
2023-11-16T10:09:52.313Z,3.25
2023-11-16T10:12:54.122Z,3.42
2023-11-16T10:16:00.473Z,3.22
2023-11-16T10:19:06.582Z,3.20
2023-11-16T10:22:09.067Z,3.22
2023-11-16T10:25:12.009Z,3.53
2023-11-16T10:28:20.805Z,3.28
2023-11-16T10:31:22.416Z,3.10
2023-11-16T10:34:24.501Z,3.03
2023-11-16T10:37:28.619Z,2.63
2023-11-16T10:40:30.053Z,3.13
2023-11-16T10:43:31.508Z,3.28
2023-11-16T10:46:32.985Z,2.97
2023-11-16T10:49:34.671Z,3.03
2023-11-16T10:52:36.845Z,2.70
2023-11-16T10:55:38.523Z,3.05
2023-11-16T10:58:40.709Z,2.63
2023-11-16T11:01:43.275Z,3.25
2023-11-16T11:04:44.867Z,2.83
2023-11-16T11:07:50.202Z,3.50
2023-11-16T11:10:53.764Z,3.22
2023-11-16T11:13:56.421Z,2.88
2023-11-16T11:17:02.775Z,3.10
2023-11-16T11:20:10.758Z,3.35
2023-11-16T11:23:19.556Z,2.97
2023-11-16T11:26:21.019Z,2.30
2023-11-16T11:29:24.559Z,2.72
2023-11-16T11:32:29.363Z,2.42
2023-11-16T11:35:36.011Z,2.60
2023-11-16T11:38:40.065Z,2.40
2023-11-16T11:41:49.037Z,2.42
2023-11-16T11:44:50.948Z,2.28
2023-11-16T11:47:55.471Z,2.75
2023-11-16T11:50:57.835Z,2.35
2023-11-16T11:53:59.210Z,2.63
2023-11-16T11:57:00.545Z,2.58
2023-11-16T12:00:02.014Z,3.03
2023-11-16T12:03:07.591Z,2.92
2023-11-16T12:06:09.615Z,2.70
2023-11-16T12:09:11.098Z,3.20
2023-11-16T12:12:12.579Z,3.22
2023-11-16T12:15:14.806Z,2.90
2023-11-16T12:18:18.744Z,3.90
2023-11-16T12:21:20.622Z,3.72
2023-11-16T12:24:24.163Z,3.45
2023-11-16T12:27:25.481Z,3.10
2023-11-16T12:30:26.862Z,2.90
2023-11-16T12:33:29.138Z,2.67
2023-11-16T12:36:33.638Z,2.70
2023-11-16T12:42:36.752Z,3.08
2023-11-16T12:45:38.441Z,3.40
2023-11-16T12:48:40.265Z,3.10
2023-11-16T12:51:42.344Z,3.53
2023-11-16T12:54:43.794Z,3.78
2023-11-16T12:57:47.484Z,3.20
2023-11-16T13:00:50.492Z,3.35
2023-11-16T13:03:53.686Z,3.45
2023-11-16T13:06:58.226Z,4.03
2023-11-16T13:13:02.641Z,3.90
2023-11-16T13:16:04.195Z,3.53
2023-11-16T13:19:07.971Z,6.00
2023-11-16T13:22:09.599Z,8.15
2023-11-16T13:25:10.933Z,6.22
2023-11-16T13:28:12.273Z,4.05
2023-11-16T13:31:13.878Z,4.03
2023-11-16T13:34:15.342Z,3.65
2023-11-16T13:37:16.689Z,3.58
2023-11-16T13:40:19.415Z,3.75
2023-11-16T13:43:20.877Z,3.80
2023-11-16T13:46:23.309Z,4.57
2023-11-16T13:49:24.756Z,6.20
2023-11-16T13:52:26.754Z,4.93
2023-11-16T13:55:28.148Z,4.88
2023-11-16T13:58:29.467Z,7.35
2023-11-16T14:01:30.824Z,10.23
2023-11-16T14:04:33.855Z,11.18
2023-11-16T14:07:35.670Z,6.75
2023-11-16T14:10:37.025Z,3.63
2023-11-16T14:13:40.023Z,3.83
2023-11-16T14:16:41.473Z,3.58
2023-11-16T14:19:42.885Z,3.13
2023-11-16T14:22:45.140Z,3.38
2023-11-16T14:25:48.869Z,3.80
2023-11-16T14:28:50.152Z,3.75
2023-11-16T14:31:51.493Z,3.47
2023-11-16T14:34:52.797Z,3.75
2023-11-16T14:37:54.426Z,3.35
2023-11-16T14:40:55.753Z,3.75
2023-11-16T14:43:57.137Z,3.88
2023-11-16T14:46:58.489Z,3.60
2023-11-16T14:49:59.820Z,3.70
2023-11-16T14:53:07.765Z,4.03
2023-11-16T14:56:10.784Z,4.00
2023-11-16T14:59:12.170Z,4.00
2023-11-16T15:02:13.492Z,3.67
2023-11-16T15:05:19.438Z,3.88
2023-11-16T15:08:26.500Z,4.55
2023-11-16T15:11:28.558Z,3.85
2023-11-16T15:14:29.835Z,5.28
2023-11-16T15:17:32.049Z,4.75
2023-11-16T15:20:35.921Z,4.47
2023-11-16T15:23:37.290Z,4.07
2023-11-16T15:26:48.131Z,3.80
2023-11-16T15:29:52.170Z,4.32
2023-11-16T15:32:54.359Z,3.75
2023-11-16T15:35:56.250Z,3.63
2023-11-16T15:39:03.026Z,3.97
2023-11-16T15:42:05.550Z,4.25
2023-11-16T15:45:07.647Z,4.72
2023-11-16T15:48:09.676Z,4.95
2023-11-16T15:51:13.992Z,3.63
2023-11-16T15:54:16.904Z,3.85
2023-11-16T15:57:23.641Z,2.97
2023-11-16T16:00:26.161Z,2.67
2023-11-16T16:03:27.619Z,2.88
2023-11-16T16:06:29.068Z,2.90
2023-11-16T16:09:31.573Z,3.13
2023-11-16T16:12:33.467Z,2.53
2023-11-16T16:15:34.830Z,2.40
2023-11-16T16:18:36.202Z,2.25
2023-11-16T16:21:37.584Z,1.92
2023-11-16T16:24:38.995Z,2.05
2023-11-16T16:27:40.421Z,2.03
2023-11-16T16:30:42.132Z,1.80
2023-11-16T16:33:43.499Z,2.13
2023-11-16T16:36:44.902Z,3.78
2023-11-16T16:39:46.223Z,3.85
2023-11-16T16:42:47.562Z,2.65
2023-11-16T16:45:49.174Z,2.78
2023-11-16T16:48:50.605Z,2.13
2023-11-16T16:51:56.728Z,2.33
2023-11-16T16:54:58.003Z,2.70
2023-11-16T16:57:59.689Z,2.95
2023-11-16T17:01:01.144Z,2.88
2023-11-16T17:04:03.269Z,2.58
2023-11-16T17:07:04.866Z,2.63
2023-11-16T17:10:10.390Z,2.65
2023-11-16T17:13:11.768Z,2.47
2023-11-16T17:16:13.149Z,2.95
2023-11-16T17:19:14.559Z,3.28
2023-11-16T17:22:16.509Z,2.08
2023-11-16T17:25:17.899Z,3.03
2023-11-16T17:28:19.209Z,2.80
2023-11-16T17:31:20.594Z,3.97
2023-11-16T17:34:22.412Z,3.22
2023-11-16T17:37:23.746Z,2.95
2023-11-16T17:40:26.924Z,3.17
2023-11-16T17:43:28.409Z,2.83
2023-11-16T17:46:29.863Z,3.15
2023-11-16T17:49:31.751Z,3.03
2023-11-16T17:52:33.131Z,3.22
2023-11-16T17:55:35.120Z,3.83
2023-11-16T17:58:39.273Z,4.07
2023-11-16T18:01:40.982Z,3.42
2023-11-16T18:04:42.793Z,3.10
2023-11-16T18:07:46.514Z,3.65
2023-11-16T18:10:54.796Z,2.80
2023-11-16T18:13:56.156Z,2.53
2023-11-16T18:16:57.696Z,3.53
2023-11-16T18:19:59.027Z,3.10
2023-11-16T18:23:00.881Z,2.63
2023-11-16T18:26:02.238Z,2.50
2023-11-16T18:29:03.594Z,4.20
2023-11-16T18:32:05.468Z,3.25
2023-11-16T18:35:07.264Z,2.90
2023-11-16T18:38:11.998Z,3.55
2023-11-16T18:44:14.568Z,4.57
2023-11-16T18:47:15.923Z,3.45
2023-11-16T18:50:17.481Z,3.42
2023-11-16T18:53:19.389Z,3.20
2023-11-16T18:56:21.490Z,2.70
2023-11-16T18:59:22.872Z,2.28
2023-11-16T19:02:24.199Z,2.40
2023-11-16T19:05:25.494Z,2.13
2023-11-16T19:08:26.828Z,2.22
2023-11-16T19:11:28.172Z,2.97
2023-11-16T19:14:32.447Z,3.17
2023-11-16T19:17:34.011Z,3.20
2023-11-16T19:20:37.710Z,2.42
2023-11-16T19:23:39.319Z,2.95
2023-11-16T19:26:42.758Z,2.63
2023-11-16T19:32:49.744Z,3.00
2023-11-16T19:38:52.989Z,3.83
2023-11-16T19:41:54.577Z,3.10
2023-11-16T19:44:57.456Z,3.10
2023-11-16T19:47:58.825Z,2.90
2023-11-16T19:51:00.275Z,2.80
2023-11-16T19:54:04.082Z,3.22
2023-11-16T19:57:05.529Z,3.72
2023-11-16T20:00:08.453Z,2.45
2023-11-16T20:03:10.023Z,3.13
2023-11-16T20:06:11.533Z,2.75
2023-11-16T20:09:16.102Z,2.92
2023-11-16T20:12:21.051Z,3.50
2023-11-16T20:15:24.040Z,3.30
2023-11-16T20:18:25.398Z,3.03
2023-11-16T20:21:26.717Z,3.70
2023-11-16T20:24:28.048Z,3.22
2023-11-16T20:27:31.417Z,3.13
2023-11-16T20:30:33.005Z,3.03
2023-11-16T20:33:34.471Z,2.65
2023-11-16T20:36:35.899Z,3.00
2023-11-16T20:39:37.339Z,2.90
2023-11-16T20:42:39.168Z,2.70
2023-11-16T20:45:40.872Z,2.67
2023-11-16T20:48:42.336Z,2.65
2023-11-16T20:51:43.865Z,2.53
2023-11-16T20:54:45.233Z,2.40
2023-11-16T20:57:46.968Z,2.20
2023-11-16T21:00:48.303Z,2.40
2023-11-16T21:03:49.867Z,2.60
2023-11-16T21:06:51.404Z,2.13
2023-11-16T21:09:52.792Z,2.15
2023-11-16T21:12:54.344Z,2.30
2023-11-16T21:15:55.732Z,2.30
2023-11-16T21:18:57.171Z,2.50
2023-11-16T21:21:59.069Z,1.98
2023-11-16T21:25:00.676Z,2.33
2023-11-16T21:28:02.088Z,2.35
2023-11-16T21:31:06.275Z,2.15
2023-11-16T21:34:07.682Z,2.63
2023-11-16T21:37:09.685Z,2.03
2023-11-16T21:40:12.288Z,2.08
2023-11-16T21:43:13.667Z,1.42
2023-11-16T21:46:15.367Z,2.08
2023-11-16T21:49:16.968Z,1.63
2023-11-16T21:52:18.533Z,1.92
2023-11-16T21:55:20.035Z,1.92
2023-11-16T21:58:21.570Z,2.00
2023-11-16T22:01:23.143Z,2.72
2023-11-16T22:04:26.064Z,2.65
2023-11-16T22:07:27.447Z,3.05
2023-11-16T22:10:28.801Z,3.92
2023-11-16T22:13:30.212Z,3.47
2023-11-16T22:16:31.595Z,3.33
2023-11-16T22:19:33.333Z,3.38
2023-11-16T22:22:34.880Z,3.67
2023-11-16T22:25:36.533Z,3.63
2023-11-16T22:28:37.829Z,4.20
2023-11-16T22:31:39.249Z,4.50
2023-11-16T22:34:41.194Z,4.93
2023-11-16T22:37:43.202Z,5.05
2023-11-16T22:40:44.482Z,4.75
2023-11-16T22:43:45.765Z,4.32
2023-11-16T22:46:47.194Z,4.43
2023-11-16T22:49:48.863Z,3.20
2023-11-16T22:52:50.170Z,3.50
2023-11-16T22:55:51.495Z,4.10
2023-11-16T22:58:52.821Z,3.90
2023-11-16T23:01:55.290Z,4.45
2023-11-16T23:04:57.441Z,4.68
2023-11-16T23:07:59.601Z,3.95
2023-11-16T23:11:02.319Z,4.55
2023-11-16T23:14:03.596Z,5.00
2023-11-16T23:17:10.307Z,4.30
2023-11-16T23:20:12.766Z,4.35
2023-11-16T23:23:14.677Z,3.80
2023-11-16T23:26:16.814Z,4.18
2023-11-16T23:29:18.240Z,3.80
2023-11-16T23:32:19.600Z,4.35
2023-11-16T23:35:21.040Z,4.15
2023-11-16T23:38:22.415Z,4.38
2023-11-16T23:41:23.961Z,4.55
2023-11-16T23:44:26.283Z,4.13
2023-11-16T23:47:27.666Z,4.43
2023-11-16T23:50:30.909Z,3.83
2023-11-16T23:53:32.217Z,3.45
2023-11-16T23:56:33.552Z,3.63
2023-11-16T23:59:35.063Z,3.30
